createdAt,value
2022-10-10T00:00:28.316Z,6.68
2022-10-10T00:02:58.515Z,8.23
2022-10-10T00:05:28.420Z,7.32
2022-10-10T00:07:58.490Z,7.75
2022-10-10T00:10:28.493Z,7.18
2022-10-10T00:12:58.612Z,8.35
2022-10-10T00:15:28.501Z,7.70
2022-10-10T00:17:58.848Z,8.13
2022-10-10T00:20:29.360Z,8.32
2022-10-10T00:22:59.257Z,7.50
2022-10-10T00:25:31.776Z,7.70
2022-10-10T00:28:05.581Z,5.20
2022-10-10T00:30:35.779Z,4.72
2022-10-10T00:33:05.825Z,5.18
2022-10-10T00:35:35.840Z,5.97
2022-10-10T00:38:05.891Z,6.03
2022-10-10T00:40:36.807Z,5.95
2022-10-10T00:43:06.810Z,5.60
2022-10-10T00:45:41.362Z,5.53
2022-10-10T00:48:21.585Z,6.10
2022-10-10T00:50:56.679Z,5.82
2022-10-10T00:53:32.611Z,5.50
2022-10-10T00:56:02.917Z,5.45
2022-10-10T00:58:34.748Z,5.65
2022-10-10T01:01:05.402Z,5.82
2022-10-10T01:03:35.495Z,6.88
2022-10-10T01:06:06.111Z,5.93
2022-10-10T01:08:36.166Z,5.60
2022-10-10T01:11:30.738Z,5.40
2022-10-10T01:14:27.879Z,5.55
2022-10-10T01:17:21.209Z,5.30
2022-10-10T01:20:09.612Z,5.75
2022-10-10T01:23:00.735Z,5.45
2022-10-10T01:25:55.025Z,5.80
2022-10-10T01:28:39.853Z,5.95
2022-10-10T01:31:11.211Z,5.30
2022-10-10T01:34:01.257Z,5.68
2022-10-10T01:37:04.130Z,5.68
2022-10-10T01:39:42.367Z,8.50
2022-10-10T01:42:38.616Z,5.43
2022-10-10T01:45:09.074Z,5.70
2022-10-10T01:47:40.251Z,4.85
2022-10-10T01:50:14.453Z,4.85
2022-10-10T01:52:56.456Z,6.05
2022-10-10T01:55:58.475Z,4.47
2022-10-10T01:58:36.427Z,4.80
2022-10-10T02:01:27.588Z,4.32
2022-10-10T02:04:07.331Z,4.47
2022-10-10T02:06:59.274Z,4.15
2022-10-10T02:09:36.598Z,4.93
2022-10-10T02:12:07.662Z,4.50
2022-10-10T02:14:43.394Z,4.13
2022-10-10T02:17:14.908Z,4.13
2022-10-10T02:19:48.538Z,4.35
2022-10-10T02:22:18.470Z,4.95
2022-10-10T02:24:48.433Z,4.78
2022-10-10T02:27:38.155Z,4.07
2022-10-10T02:30:08.840Z,4.82
2022-10-10T02:32:46.311Z,4.05
2022-10-10T02:35:25.311Z,3.47
2022-10-10T02:37:57.867Z,3.42
2022-10-10T02:40:32.225Z,3.67
2022-10-10T02:43:03.235Z,3.50
2022-10-10T02:45:35.504Z,3.33
2022-10-10T02:48:05.584Z,3.22
2022-10-10T02:50:35.605Z,3.25
2022-10-10T02:53:05.626Z,3.15
2022-10-10T02:55:35.608Z,2.72
2022-10-10T02:58:05.598Z,2.60
2022-10-10T03:00:35.828Z,2.42
2022-10-10T03:03:08.872Z,2.45
2022-10-10T03:05:38.876Z,2.95
2022-10-10T03:08:11.688Z,3.05
2022-10-10T03:10:42.051Z,2.38
2022-10-10T03:13:12.041Z,2.65
2022-10-10T03:15:41.955Z,2.30
2022-10-10T03:18:11.919Z,2.30
2022-10-10T03:20:41.848Z,2.78
2022-10-10T03:23:12.375Z,2.47
2022-10-10T03:25:45.851Z,2.30
2022-10-10T03:28:15.893Z,2.08
2022-10-10T03:30:46.099Z,2.03
2022-10-10T03:33:16.194Z,2.58
2022-10-10T03:35:46.122Z,2.22
2022-10-10T03:38:16.342Z,2.20
2022-10-10T03:40:47.246Z,2.20
2022-10-10T03:43:17.219Z,2.30
2022-10-10T03:45:48.930Z,1.88
2022-10-10T03:48:18.874Z,1.88
2022-10-10T03:50:48.796Z,1.80
2022-10-10T03:53:18.719Z,1.40
2022-10-10T03:55:48.749Z,1.33
2022-10-10T03:58:22.913Z,1.30
2022-10-10T04:01:01.028Z,1.80
2022-10-10T04:03:31.368Z,1.30
2022-10-10T04:06:01.619Z,1.50
2022-10-10T04:08:31.917Z,1.02
2022-10-10T04:11:01.859Z,1.20
2022-10-10T04:13:31.848Z,1.08
2022-10-10T04:16:02.365Z,1.17
2022-10-10T04:18:32.271Z,1.13
2022-10-10T04:21:06.481Z,1.52
2022-10-10T04:23:36.532Z,0.90
2022-10-10T04:26:06.574Z,0.95
2022-10-10T04:28:36.541Z,1.20
2022-10-10T04:31:08.801Z,1.05
2022-10-10T04:33:38.962Z,1.10
2022-10-10T04:36:09.998Z,1.27
2022-10-10T04:38:39.997Z,0.63
2022-10-10T04:41:10.002Z,1.40
2022-10-10T04:43:39.982Z,0.90
2022-10-10T04:46:10.222Z,0.88
2022-10-10T04:48:40.121Z,0.90
2022-10-10T04:51:10.954Z,0.88
2022-10-10T04:53:41.300Z,0.95
2022-10-10T04:56:11.361Z,1.60
2022-10-10T04:58:41.263Z,1.58
2022-10-10T05:01:11.719Z,1.50
2022-10-10T05:03:41.705Z,1.48
2022-10-10T05:06:19.055Z,2.10
2022-10-10T05:08:49.163Z,2.20
2022-10-10T05:11:19.249Z,2.05
2022-10-10T05:13:51.158Z,2.88
2022-10-10T05:16:21.251Z,2.13
2022-10-10T05:18:51.588Z,2.50
2022-10-10T05:21:33.216Z,2.55
2022-10-10T05:24:10.335Z,2.42
2022-10-10T05:26:47.322Z,2.00
2022-10-10T05:29:17.326Z,2.22
2022-10-10T05:31:47.286Z,2.40
2022-10-10T05:34:17.360Z,2.13
2022-10-10T05:36:47.372Z,2.47
2022-10-10T05:39:17.849Z,3.28
2022-10-10T05:41:48.070Z,2.58
2022-10-10T05:44:18.134Z,2.28
2022-10-10T05:46:48.126Z,2.20
2022-10-10T05:49:18.654Z,1.80
2022-10-10T05:51:48.670Z,2.03
2022-10-10T05:54:18.781Z,1.65
2022-10-10T05:56:48.860Z,1.33
2022-10-10T05:59:19.099Z,1.55
2022-10-10T06:01:50.095Z,1.45
2022-10-10T06:04:20.456Z,1.85
2022-10-10T06:06:51.160Z,1.30
2022-10-10T06:09:21.159Z,1.70
2022-10-10T06:11:51.267Z,1.40
2022-10-10T06:14:21.318Z,1.38
2022-10-10T06:16:51.280Z,1.20
2022-10-10T06:19:21.823Z,1.05
2022-10-10T06:21:51.956Z,1.45
2022-10-10T06:24:22.141Z,1.65
2022-10-10T06:26:52.141Z,1.45
2022-10-10T06:29:23.743Z,1.52
2022-10-10T06:31:53.696Z,1.45
2022-10-10T06:34:23.716Z,1.27
2022-10-10T06:36:53.733Z,1.30
2022-10-10T06:39:23.935Z,1.77
2022-10-10T06:41:54.077Z,1.42
2022-10-10T06:44:24.091Z,1.50
2022-10-10T06:46:54.045Z,1.10
2022-10-10T06:49:26.567Z,0.98
2022-10-10T06:51:56.836Z,0.77
2022-10-10T06:54:26.798Z,0.63
2022-10-10T06:56:56.783Z,0.88
2022-10-10T06:59:26.753Z,1.17
2022-10-10T07:01:56.773Z,1.17
2022-10-10T07:04:30.456Z,0.85
2022-10-10T07:07:00.492Z,0.82
2022-10-10T07:09:30.604Z,0.70
2022-10-10T07:12:00.485Z,0.85
2022-10-10T07:14:30.447Z,0.80
2022-10-10T07:17:00.425Z,1.25
2022-10-10T07:19:30.410Z,0.98
2022-10-10T07:22:00.427Z,0.70
2022-10-10T07:24:30.546Z,1.00
2022-10-10T07:27:06.391Z,1.00
2022-10-10T07:29:38.894Z,0.82
2022-10-10T07:32:08.996Z,0.60
2022-10-10T07:34:39.219Z,0.68
2022-10-10T07:37:09.134Z,0.50
2022-10-10T07:39:39.077Z,0.90
2022-10-10T07:42:09.028Z,0.50
2022-10-10T07:44:39.166Z,0.88
2022-10-10T07:47:09.333Z,0.70
2022-10-10T07:49:39.417Z,0.95
2022-10-10T07:52:09.377Z,0.80
2022-10-10T07:54:39.385Z,0.88
2022-10-10T07:57:09.524Z,0.80
2022-10-10T07:59:41.872Z,0.63
2022-10-10T08:02:12.374Z,0.60
2022-10-10T08:04:42.432Z,0.57
2022-10-10T08:07:12.813Z,0.50
2022-10-10T08:09:42.820Z,0.52
2022-10-10T08:12:12.862Z,0.47
2022-10-10T08:14:42.813Z,0.50
2022-10-10T08:17:12.754Z,0.40
2022-10-10T08:19:45.609Z,0.30
2022-10-10T08:22:15.650Z,0.30
2022-10-10T08:24:45.609Z,0.40
2022-10-10T08:27:19.026Z,0.20
2022-10-10T08:29:49.077Z,0.30
2022-10-10T08:32:19.074Z,0.40
2022-10-10T08:34:49.114Z,0.17
2022-10-10T08:37:19.156Z,0.30
2022-10-10T08:39:49.396Z,0.20
2022-10-10T08:42:45.571Z,0.20
2022-10-10T08:45:28.167Z,0.40
2022-10-10T08:48:06.490Z,0.10
2022-10-10T08:51:09.465Z,0.10
2022-10-10T08:53:44.703Z,0.30
2022-10-10T08:56:20.504Z,0.20
2022-10-10T08:58:51.975Z,0.30
2022-10-10T09:01:28.655Z,0.20
2022-10-10T09:04:02.366Z,0.10
2022-10-10T09:06:37.761Z,0.10
2022-10-10T09:09:37.498Z,0.50
2022-10-10T09:12:44.117Z,0.38
2022-10-10T09:15:37.237Z,0.40
2022-10-10T09:18:18.393Z,0.57
2022-10-10T09:21:28.035Z,0.38
2022-10-10T09:24:06.677Z,1.05
2022-10-10T09:26:47.863Z,0.75
2022-10-10T09:29:37.628Z,0.30
2022-10-10T09:32:20.371Z,0.50
2022-10-10T09:34:52.640Z,0.47
2022-10-10T09:37:48.367Z,0.47
2022-10-10T09:40:45.364Z,0.50
2022-10-10T09:43:19.701Z,0.50
2022-10-10T09:45:54.596Z,0.35
2022-10-10T09:48:46.255Z,0.35
2022-10-10T09:51:18.156Z,0.50
2022-10-10T09:53:48.993Z,0.70
2022-10-10T09:56:26.900Z,0.43
2022-10-10T09:58:57.283Z,0.60
2022-10-10T10:01:32.881Z,1.02
2022-10-10T10:04:29.488Z,0.30
2022-10-10T10:07:21.823Z,0.55
2022-10-10T10:09:53.269Z,0.53
2022-10-10T10:12:29.091Z,0.45
2022-10-10T10:15:07.581Z,0.40
2022-10-10T10:17:37.562Z,0.30
2022-10-10T10:20:25.762Z,0.40
2022-10-10T10:22:55.710Z,0.60
2022-10-10T10:25:37.973Z,0.60
2022-10-10T10:28:16.918Z,0.52
2022-10-10T10:30:47.461Z,0.50
2022-10-10T10:33:23.452Z,0.52
2022-10-10T10:35:56.808Z,0.68
2022-10-10T10:38:46.872Z,0.50
2022-10-10T10:41:32.185Z,0.20
2022-10-10T10:44:17.709Z,0.30
2022-10-10T10:47:17.738Z,0.40
2022-10-10T10:50:01.438Z,0.35
2022-10-10T10:52:43.475Z,0.50
2022-10-10T10:55:16.593Z,0.40
2022-10-10T10:58:48.841Z,0.50
2022-10-10T11:01:28.666Z,0.32
2022-10-10T11:05:17.846Z,0.30
2022-10-10T11:07:20.050Z,0.40
2022-10-10T11:10:03.626Z,0.20
2022-10-10T11:16:06.000Z,0.40
2022-10-10T11:18:34.348Z,0.30
2022-10-10T11:21:07.677Z,0.30
2022-10-10T11:23:44.006Z,0.13
2022-10-10T11:26:26.733Z,0.20
2022-10-10T11:29:01.614Z,0.25
2022-10-10T11:31:40.904Z,1.00
2022-10-10T11:34:42.326Z,1.85
2022-10-10T11:37:19.748Z,1.08
2022-10-10T11:40:01.460Z,1.58
2022-10-10T11:42:38.895Z,2.28
2022-10-10T11:45:36.857Z,2.55
2022-10-10T11:48:25.366Z,3.05
2022-10-10T11:50:58.916Z,2.67
2022-10-10T11:53:39.234Z,3.33
2022-10-10T11:56:41.386Z,2.95
2022-10-10T11:59:38.820Z,3.17
2022-10-10T12:02:24.456Z,2.83
2022-10-10T12:04:57.208Z,3.38
2022-10-10T12:07:56.320Z,3.63
2022-10-10T12:10:27.848Z,3.15
2022-10-10T12:12:59.303Z,5.00
2022-10-10T12:15:41.757Z,4.45
2022-10-10T12:18:52.863Z,5.63
2022-10-10T12:21:28.631Z,7.57
2022-10-10T12:24:06.402Z,6.70
2022-10-10T12:26:54.556Z,7.45
2022-10-10T12:29:57.716Z,6.25
2022-10-10T12:32:43.315Z,7.03
2022-10-10T12:35:33.331Z,6.43
2022-10-10T12:38:14.334Z,5.72
2022-10-10T12:40:59.847Z,6.53
2022-10-10T12:43:53.172Z,7.85
2022-10-10T12:46:28.027Z,6.22
2022-10-10T12:49:01.745Z,5.88
2022-10-10T12:51:32.340Z,6.05
2022-10-10T12:54:03.794Z,5.60
2022-10-10T12:56:42.557Z,5.95
2022-10-10T12:59:22.550Z,5.57
2022-10-10T13:02:02.207Z,6.95
2022-10-10T13:04:33.265Z,6.78
2022-10-10T13:07:03.452Z,6.55
2022-10-10T13:09:35.858Z,7.00
2022-10-10T13:14:46.729Z,6.25
2022-10-10T13:17:26.749Z,7.25
2022-10-10T13:19:58.519Z,7.13
2022-10-10T13:22:29.702Z,6.45
2022-10-10T13:25:00.639Z,5.57
2022-10-10T13:27:34.193Z,6.18
2022-10-10T13:30:04.235Z,6.05
2022-10-10T13:32:35.322Z,5.78
2022-10-10T13:35:13.782Z,6.88
2022-10-10T13:37:44.066Z,6.40
2022-10-10T13:40:20.400Z,6.88
2022-10-10T13:42:50.533Z,7.63
2022-10-10T13:45:29.504Z,7.32
2022-10-10T13:48:03.147Z,7.88
2022-10-10T13:50:34.722Z,6.90
2022-10-10T13:53:32.687Z,7.72
2022-10-10T13:56:05.653Z,8.00
2022-10-10T14:01:24.344Z,7.70
2022-10-10T14:03:54.774Z,8.18
2022-10-10T14:06:26.628Z,9.05
2022-10-10T14:08:59.675Z,8.23
2022-10-10T14:11:29.612Z,8.10
2022-10-10T14:14:09.870Z,8.73
2022-10-10T14:16:39.820Z,8.88
2022-10-10T14:19:30.052Z,8.55
2022-10-10T14:22:00.017Z,8.70
2022-10-10T14:24:30.571Z,8.70
2022-10-10T14:27:14.439Z,9.13
2022-10-10T14:29:44.401Z,7.95
2022-10-10T14:32:14.710Z,9.52
2022-10-10T14:34:45.019Z,9.60
2022-10-10T14:37:22.262Z,8.15
2022-10-10T14:39:52.335Z,7.63
2022-10-10T14:42:22.718Z,7.45
2022-10-10T14:44:53.004Z,8.90
2022-10-10T14:47:24.446Z,9.30
2022-10-10T14:49:54.636Z,8.60
2022-10-10T14:52:24.889Z,8.77
2022-10-10T14:54:54.883Z,8.98
2022-10-10T14:57:24.745Z,8.52
2022-10-10T14:59:57.118Z,8.95
2022-10-10T15:02:28.458Z,10.85
2022-10-10T15:04:58.486Z,9.07
2022-10-10T15:07:28.474Z,10.48
2022-10-10T15:12:48.415Z,9.63
2022-10-10T15:15:18.367Z,9.95
2022-10-10T15:17:48.642Z,10.55
2022-10-10T15:20:18.711Z,10.10
2022-10-10T15:22:48.751Z,9.90
2022-10-10T15:25:19.346Z,10.35
2022-10-10T15:27:50.041Z,8.90
2022-10-10T15:30:20.256Z,9.38
2022-10-10T15:32:50.480Z,9.35
2022-10-10T15:35:22.957Z,9.85
2022-10-10T15:37:53.332Z,9.68
2022-10-10T15:40:24.839Z,9.75
2022-10-10T15:42:55.055Z,10.32
2022-10-10T15:45:54.929Z,10.07
2022-10-10T15:48:15.418Z,10.27
2022-10-10T15:50:45.357Z,10.15
2022-10-10T15:53:15.297Z,11.93
2022-10-10T15:55:45.770Z,11.10
2022-10-10T15:58:16.244Z,11.07
2022-10-10T16:00:48.135Z,11.52
2022-10-10T16:03:19.982Z,11.05
2022-10-10T16:05:50.152Z,10.65
2022-10-10T16:08:20.288Z,11.05
2022-10-10T16:10:50.808Z,11.50
2022-10-10T16:13:20.928Z,11.07
2022-10-10T16:16:01.174Z,10.40
2022-10-10T16:18:35.462Z,11.23
2022-10-10T16:21:09.990Z,10.07
2022-10-10T16:23:40.481Z,10.95
2022-10-10T16:26:18.844Z,11.13
2022-10-10T16:28:48.984Z,12.30
2022-10-10T16:31:20.589Z,12.93
2022-10-10T16:33:53.049Z,12.07
2022-10-10T16:36:28.313Z,12.45
2022-10-10T16:39:00.595Z,11.10
2022-10-10T16:41:47.692Z,11.80
2022-10-10T16:44:18.987Z,11.45
2022-10-10T16:46:52.011Z,12.65
2022-10-10T16:51:55.189Z,11.45
2022-10-10T16:54:25.329Z,11.85
2022-10-10T16:56:55.501Z,12.27
2022-10-10T16:59:25.480Z,13.35
2022-10-10T17:01:55.769Z,13.60
2022-10-10T17:04:26.146Z,13.75
2022-10-10T17:06:56.036Z,13.40
2022-10-10T17:09:25.942Z,13.80
2022-10-10T17:11:56.179Z,14.68
2022-10-10T17:14:26.282Z,13.75
2022-10-10T17:17:13.190Z,14.15
2022-10-10T17:19:43.867Z,13.43
2022-10-10T17:22:13.993Z,13.85
2022-10-10T17:24:43.959Z,14.00
2022-10-10T17:27:14.348Z,14.52
2022-10-10T17:29:44.235Z,14.05
2022-10-10T17:32:14.546Z,12.73
2022-10-10T17:34:44.971Z,14.07
2022-10-10T17:37:14.997Z,12.40
2022-10-10T17:39:44.915Z,14.45
2022-10-10T17:42:15.381Z,12.35
2022-10-10T17:44:50.478Z,12.02
2022-10-10T17:47:24.080Z,11.75
2022-10-10T17:49:54.827Z,11.93
2022-10-10T17:52:26.512Z,11.13
2022-10-10T17:54:56.539Z,11.68
2022-10-10T17:57:26.564Z,11.38
2022-10-10T17:59:56.598Z,11.25
2022-10-10T18:02:27.385Z,11.57
2022-10-10T18:04:57.960Z,11.90
2022-10-10T18:07:28.042Z,10.73
2022-10-10T18:09:58.025Z,10.45
2022-10-10T18:12:28.917Z,11.93
2022-10-10T18:14:59.404Z,11.45
2022-10-10T18:17:29.630Z,11.40
2022-10-10T18:20:02.780Z,11.63
2022-10-10T18:22:33.180Z,10.93
2022-10-10T18:25:03.343Z,11.57
2022-10-10T18:27:33.295Z,11.15
2022-10-10T18:30:03.248Z,11.32
2022-10-10T18:32:33.522Z,11.52
2022-10-10T18:35:03.834Z,11.02
2022-10-10T18:37:33.824Z,10.88
2022-10-10T18:40:03.837Z,11.13
2022-10-10T18:42:33.866Z,12.02
2022-10-10T18:45:03.831Z,10.43
2022-10-10T18:47:33.753Z,11.13
2022-10-10T18:50:03.658Z,12.10
2022-10-10T18:52:33.650Z,11.27
2022-10-10T18:55:03.649Z,10.35
2022-10-10T18:57:33.560Z,10.57
2022-10-10T19:00:03.487Z,10.13
2022-10-10T19:02:35.437Z,9.25
2022-10-10T19:05:06.400Z,8.40
2022-10-10T19:07:36.648Z,8.90
2022-10-10T19:10:07.095Z,8.23
2022-10-10T19:12:38.491Z,9.07
2022-10-10T19:15:08.941Z,9.68
2022-10-10T19:17:39.335Z,9.60
2022-10-10T19:20:10.058Z,9.50
2022-10-10T19:22:40.983Z,8.43
2022-10-10T19:25:11.309Z,8.55
2022-10-10T19:27:41.342Z,8.38
2022-10-10T19:30:12.042Z,9.10
2022-10-10T19:32:44.965Z,8.45
2022-10-10T19:35:15.455Z,8.15
2022-10-10T19:37:45.432Z,8.30
2022-10-10T19:40:15.381Z,8.50
2022-10-10T19:42:45.767Z,8.43
2022-10-10T19:45:15.751Z,8.52
2022-10-10T19:47:45.657Z,7.90
2022-10-10T19:50:15.761Z,8.10
2022-10-10T19:52:45.714Z,8.20
2022-10-10T19:55:15.655Z,7.93
2022-10-10T19:57:45.615Z,8.27
2022-10-10T20:00:16.144Z,7.22
2022-10-10T20:02:46.686Z,7.60
2022-10-10T20:05:17.474Z,7.10
2022-10-10T20:07:47.521Z,7.28
2022-10-10T20:10:17.738Z,8.15
2022-10-10T20:12:48.907Z,7.80
2022-10-10T20:15:19.082Z,8.25
2022-10-10T20:17:49.003Z,9.27
2022-10-10T20:20:19.390Z,7.50
2022-10-10T20:22:49.705Z,8.00
2022-10-10T20:25:19.638Z,8.65
2022-10-10T20:27:49.580Z,7.38
2022-10-10T20:30:19.557Z,7.88
2022-10-10T20:32:49.708Z,8.20
2022-10-10T20:35:21.395Z,6.65
2022-10-10T20:37:51.527Z,7.47
2022-10-10T20:40:21.413Z,8.77
2022-10-10T20:42:52.032Z,7.60
2022-10-10T20:45:22.385Z,7.32
2022-10-10T20:47:52.292Z,6.82
2022-10-10T20:50:22.660Z,7.55
2022-10-10T20:52:53.353Z,7.20
2022-10-10T20:55:23.235Z,6.60
2022-10-10T20:57:53.142Z,6.75
2022-10-10T21:00:23.326Z,6.75
2022-10-10T21:02:54.081Z,6.15
2022-10-10T21:05:24.008Z,6.15
2022-10-10T21:07:56.836Z,6.30
2022-10-10T21:12:58.154Z,6.07
2022-10-10T21:15:28.613Z,4.93
2022-10-10T21:17:59.361Z,5.13
2022-10-10T21:20:30.534Z,5.60
2022-10-10T21:23:00.700Z,6.05
2022-10-10T21:25:30.666Z,5.93
2022-10-10T21:28:00.597Z,5.05
2022-10-10T21:30:30.520Z,5.95
2022-10-10T21:33:00.910Z,5.00
2022-10-10T21:35:30.939Z,5.45
2022-10-10T21:38:00.935Z,4.13
2022-10-10T21:40:30.801Z,4.90
2022-10-10T21:43:00.759Z,5.18
2022-10-10T21:45:30.662Z,5.07
2022-10-10T21:48:00.720Z,5.15
2022-10-10T21:50:30.690Z,4.38
2022-10-10T21:53:00.642Z,5.25
2022-10-10T21:55:30.670Z,4.82
2022-10-10T21:58:00.627Z,4.40
2022-10-10T22:00:30.577Z,4.47
2022-10-10T22:03:00.971Z,3.92
2022-10-10T22:05:31.556Z,4.22
2022-10-10T22:08:01.502Z,4.75
2022-10-10T22:10:31.759Z,3.92
2022-10-10T22:13:04.776Z,4.15
2022-10-10T22:15:34.933Z,4.28
2022-10-10T22:18:04.947Z,4.32
2022-10-10T22:20:34.869Z,4.05
2022-10-10T22:23:04.996Z,3.92
2022-10-10T22:25:34.998Z,4.05
2022-10-10T22:28:06.352Z,4.68
2022-10-10T22:30:37.293Z,4.47
2022-10-10T22:33:07.790Z,3.75
2022-10-10T22:35:38.006Z,4.22
2022-10-10T22:38:07.943Z,4.60
2022-10-10T22:40:38.576Z,4.55
2022-10-10T22:43:08.476Z,4.60
2022-10-10T22:45:38.431Z,4.40
2022-10-10T22:48:08.931Z,4.30
2022-10-10T22:50:39.985Z,4.28
2022-10-10T22:53:10.115Z,4.85
2022-10-10T22:55:40.012Z,4.35
2022-10-10T22:58:10.325Z,4.60
2022-10-10T23:00:42.688Z,4.78
2022-10-10T23:05:45.428Z,4.07
2022-10-10T23:08:15.446Z,5.13
2022-10-10T23:10:45.823Z,4.13
2022-10-10T23:13:16.021Z,4.30
2022-10-10T23:15:45.897Z,4.25
2022-10-10T23:18:16.441Z,4.68
2022-10-10T23:20:50.469Z,5.72
2022-10-10T23:23:20.461Z,5.07
2022-10-10T23:25:50.480Z,5.93
2022-10-10T23:28:20.719Z,5.72
2022-10-10T23:30:51.507Z,5.10
2022-10-10T23:33:37.408Z,5.78
2022-10-10T23:36:09.657Z,5.90
2022-10-10T23:39:09.760Z,5.78
2022-10-10T23:41:40.013Z,5.63
2022-10-10T23:44:09.899Z,6.00
2022-10-10T23:46:39.912Z,5.45
2022-10-10T23:49:12.074Z,5.32
2022-10-10T23:51:42.281Z,5.22
2022-10-10T23:54:12.183Z,5.20
2022-10-10T23:56:42.397Z,4.95
2022-10-10T23:59:12.408Z,4.53
